Latest Weather Observations for Sheffield

IDT60801

Issued at 6:02 pm EST Saturday 27 May 2017 (issued every 30 minutes, with the page automatically refreshed every 10 minutes)

About weather observations | Map of weather stations | Latest weather observations for TAS | Other Formats
Station Details ID: 091291 Name: SHEFFIELD SCHOOL FARM Lat: -41.39 Lon: 146.32 Height: 294.2 m
Data from the previous 72 hours. | See also: Recent months at Sheffield
Date/Time
EST
Temp
°C
App
Temp
°C
Dew
Point
°C
Rel
Hum
%
Delta-T
°C
Wind Press
QNH
hPa
Press
MSL
hPa
Rain since
9am
mm
Dir  Spd
km/h
Gust
km/h
Spd
kts
Gust
kts
27/06:00pm 12.5 8.2 10.9 90 0.8 NNW 24 35 13 19 - - -
27/05:30pm 12.4 8.9 10.8 90 0.8 NNW 20 35 11 19 - - 6.8
27/05:00pm 12.5 8.2 10.7 89 1.0 NNW 24 33 13 18 - - 6.6
27/04:30pm 12.5 8.6 10.7 89 1.0 NNW 22 32 12 17 - - 6.4
27/04:00pm 12.5 9.2 10.9 90 0.8 NNW 19 28 10 15 - - 6.4
27/03:30pm 12.5 9.3 11.2 92 0.7 NNW 19 28 10 15 - - 6.4
27/03:00pm 12.5 9.1 11.2 92 0.7 NNW 20 32 11 17 - - 6.4
27/02:30pm 12.8 8.6 11.0 89 1.0 NNW 24 33 13 18 - - 6.2
27/02:00pm 13.1 9.3 11.2 88 1.0 NW 22 32 12 17 - - 6.0
27/01:30pm 13.4 8.9 11.5 88 1.0 NW 26 35 14 19 - - 6.0
27/01:00pm 13.3 9.2 11.5 89 1.0 NW 24 32 13 17 - - 6.0
27/12:30pm 13.1 9.5 11.7 91 0.8 NW 22 32 12 17 - - 6.0
27/12:00pm 13.0 9.3 11.6 91 0.8 NW 22 39 12 21 - - 6.0
27/11:30am 12.6 9.4 12.0 96 0.3 NW 20 30 11 16 - - 5.8
27/11:00am 11.9 8.7 11.3 96 0.3 WNW 19 32 10 17 - - 5.6
27/10:30am 10.4 8.6 9.6 95 0.4 WNW 9 19 5 10 - - 2.8
27/10:00am 9.5 8.4 8.4 93 0.5 WSW 4 6 2 3 - - 1.0
27/09:30am 9.1 8.7 8.2 94 0.4 CALM 0 0 0 0 - - 0.2
27/09:00am 8.3 7.2 7.1 92 0.6 SE 2 6 1 3 - - 0.6
27/08:30am 8.8 8.2 7.6 92 0.6 CALM 0 0 0 0 - - 0.6
27/08:00am 7.8 7.0 6.4 91 0.7 CALM 0 0 0 0 - - 0.6
27/07:30am 8.1 7.3 6.6 90 0.7 CALM 0 4 0 2 - - 0.6
27/07:00am 7.9 7.0 6.2 89 0.8 CALM 0 2 0 1 - - 0.6
27/06:30am 7.4 6.1 6.0 91 0.6 E 2 6 1 3 - - 0.6
27/06:00am 7.5 6.6 6.1 91 0.6 CALM 0 2 0 1 - - 0.4
27/05:30am 7.3 5.5 5.6 89 0.8 SW 4 7 2 4 - - 0.4
27/05:00am 8.0 6.6 5.6 85 1.1 SSE 2 6 1 3 - - 0.0
27/04:30am 7.7 5.9 5.2 84 1.1 SE 4 4 2 2 - - 0.0
27/04:00am 8.1 6.6 4.9 80 1.4 SSW 2 4 1 2 - - 0.0
27/03:30am 8.3 7.1 4.5 77 1.7 CALM 0 0 0 0 - - 0.0
27/03:00am 7.9 6.7 4.5 79 1.5 CALM 0 4 0 2 - - 0.0
27/02:30am 7.6 6.4 4.4 80 1.4 CALM 0 6 0 3 - - 0.0
27/02:00am 8.2 6.2 4.2 76 1.8 S 4 4 2 2 - - 0.0
27/01:30am 7.4 5.8 4.4 81 1.3 E 2 4 1 2 - - 0.0
27/01:00am 8.3 6.9 3.4 71 2.1 CALM 0 0 0 0 - - 0.0
27/12:30am 7.6 5.7 4.7 82 1.3 NE 4 7 2 4 - - 0.0
27/12:00am 8.5 7.1 3.6 71 2.1 CALM 0 0 0 0 - - 0.0
 
Date/Time
EST
Temp
°C
App
Temp
°C
Dew
Point
°C
Rel
Hum
%
Delta-T
°C
Wind Press
QNH
hPa
Press
MSL
hPa
Rain since
9am
mm
Dir  Spd
km/h
Gust
km/h
Spd
kts
Gust
kts
26/11:30pm 8.2 7.0 4.4 77 1.7 CALM 0 0 0 0 - - 0.0
26/11:00pm 8.2 6.9 4.2 76 1.8 CALM 0 0 0 0 - - 0.0
26/10:30pm 8.1 6.9 4.5 78 1.6 CALM 0 4 0 2 - - 0.0
26/10:00pm 8.1 6.8 4.3 77 1.7 CALM 0 0 0 0 - - 0.0
26/09:30pm 8.1 6.5 4.5 78 1.6 WNW 2 4 1 2 - - 0.0
26/09:00pm 7.3 5.1 5.1 86 1.0 NW 6 7 3 4 - - 0.0
26/08:30pm 7.2 4.7 4.9 85 1.0 NNW 7 9 4 5 - - 0.0
26/08:00pm 8.1 6.0 5.9 86 1.0 N 6 7 3 4 - - 0.0
26/07:30pm 8.4 6.8 6.2 86 1.0 NW 4 7 2 4 - - 0.0
26/07:00pm 8.6 6.5 5.7 82 1.3 NW 6 7 3 4 - - 0.0
26/06:30pm 8.5 6.4 5.8 83 1.2 NNW 6 7 3 4 - - 0.0
26/06:00pm 8.9 6.9 6.2 83 1.3 NW 6 7 3 4 - - 0.0
26/05:30pm 9.5 6.6 6.4 81 1.5 NNW 11 13 6 7 - - 0.0
26/05:00pm 9.9 7.7 6.3 78 1.7 NNW 7 7 4 4 - - 0.0
26/04:30pm 10.1 7.9 5.1 71 2.3 NW 6 7 3 4 - - 0.0
26/04:00pm 10.6 7.7 4.5 66 2.8 WSW 9 13 5 7 - - 0.0
26/03:30pm 12.0 9.6 5.2 63 3.2 WSW 7 13 4 7 - - 0.0
26/03:00pm 12.5 8.8 4.7 59 3.6 W 13 19 7 10 - - 0.0
26/02:30pm 12.1 9.3 5.3 63 3.2 WSW 9 13 5 7 - - 0.0
26/02:00pm 11.2 7.8 4.2 62 3.2 W 11 17 6 9 - - 0.0
26/01:30pm 10.7 7.7 4.0 63 3.0 WNW 9 19 5 10 - - 0.0
26/01:00pm 10.9 7.1 3.9 62 3.2 W 13 22 7 12 - - 0.0
26/12:30pm 10.9 7.2 4.6 65 2.9 W 13 19 7 10 - - 0.0
26/12:00pm 11.1 6.0 4.3 63 3.1 WSW 20 28 11 15 - - 0.0
26/11:30am 10.6 7.2 5.8 72 2.3 NW 13 17 7 9 - - 0.0
26/11:00am 10.5 6.7 5.7 72 2.2 NW 15 20 8 11 - - 0.0
26/10:30am 9.8 6.4 5.8 76 1.9 NNW 13 17 7 9 - - 0.0
26/10:00am 9.4 5.8 5.0 74 2.0 NW 13 19 7 10 - - 0.0
26/09:30am 9.2 5.5 4.4 72 2.2 WNW 13 17 7 9 - - 0.0
26/09:00am 8.4 5.4 4.0 74 1.9 WNW 9 15 5 8 - - 1.2
26/08:30am 7.0 4.3 3.8 80 1.4 NNW 7 11 4 6 - - 1.2
26/08:00am 6.1 2.9 3.3 82 1.2 NNW 9 13 5 7 - - 1.2
26/07:30am 4.8 1.1 2.3 84 1.0 NNW 11 17 6 9 - - 1.2
26/07:00am 6.5 2.5 2.8 77 1.6 WNW 13 20 7 11 - - 1.2
26/06:30am 5.9 2.3 2.9 81 1.3 NW 11 15 6 8 - - 1.2
26/06:00am 7.5 4.4 3.7 77 1.7 WNW 9 17 5 9 - - 1.2
26/05:30am 5.9 3.3 3.2 83 1.1 NNW 6 9 3 5 - - 1.2
26/05:00am 6.1 3.5 3.1 81 1.3 NW 6 7 3 4 - - 1.2
26/04:30am 7.0 3.1 3.4 78 1.5 WNW 13 20 7 11 - - 1.2
26/04:00am 7.5 4.0 3.4 75 1.8 WNW 11 15 6 8 - - 1.2
26/03:30am 7.8 5.1 3.5 74 1.9 W 7 13 4 7 - - 1.2
26/03:00am 8.1 4.6 3.4 72 2.0 W 11 19 6 10 - - 1.2
26/02:30am 7.3 4.5 3.0 74 1.8 WNW 7 11 4 6 - - 1.2
26/02:00am 8.1 4.2 3.6 73 2.0 W 13 19 7 10 - - 1.2
26/01:30am 8.8 5.0 4.0 72 2.1 W 13 19 7 10 - - 1.2
26/01:00am 8.7 5.2 3.7 71 2.2 W 11 20 6 11 - - 1.2
26/12:30am 8.6 4.4 4.0 73 2.0 WNW 15 22 8 12 - - 1.2
26/12:00am 9.4 4.9 4.4 71 2.3 W 17 28 9 15 - - 1.2
 
Date/Time
EST
Temp
°C
App
Temp
°C
Dew
Point
°C
Rel
Hum
%
Delta-T
°C
Wind Press
QNH
hPa
Press
MSL
hPa
Rain since
9am
mm
Dir  Spd
km/h
Gust
km/h
Spd
kts
Gust
kts
25/11:30pm 9.9 5.2 5.1 72 2.2 W 19 32 10 17 - - 1.2
25/11:00pm 9.0 5.4 5.2 77 1.7 WNW 13 20 7 11 - - 1.2
25/10:30pm 9.1 6.8 5.5 78 1.7 NW 7 9 4 5 - - 1.2
25/10:00pm 9.9 7.4 6.4 79 1.7 WNW 9 15 5 8 - - 1.2
25/09:30pm 9.2 5.9 6.6 84 1.2 WNW 13 17 7 9 - - 1.2
25/09:00pm 9.6 6.3 6.5 81 1.5 WNW 13 17 7 9 - - 1.2
25/08:30pm 10.1 6.4 6.4 78 1.8 W 15 30 8 16 - - 1.2
25/08:00pm 10.6 6.5 8.0 84 1.3 W 19 30 10 16 - - 1.2
25/07:30pm 10.7 8.3 8.6 87 1.0 W 11 20 6 11 - - 1.2
25/07:00pm 10.9 7.1 9.0 88 1.0 WNW 19 26 10 14 - - 1.2
25/06:30pm 11.0 7.8 9.9 93 0.6 WNW 17 24 9 13 - - 1.2
25/06:00pm 11.0 7.4 10.4 96 0.3 NW 20 28 11 15 - - 1.2
25/05:30pm 10.9 7.8 10.4 97 0.3 NW 17 22 9 12 - - 1.2
25/05:00pm 10.9 8.6 10.3 96 0.3 NNW 13 19 7 10 - - 0.6
25/04:30pm 11.0 7.8 9.9 93 0.6 NW 17 24 9 13 - - 0.4
25/04:00pm 11.3 8.4 9.6 89 0.9 NNW 15 19 8 10 - - 0.4
25/03:30pm 11.8 9.4 9.9 88 1.0 NW 13 17 7 9 - - 0.4
25/03:00pm 11.9 8.3 10.0 88 1.0 NW 19 24 10 13 - - 0.4
25/02:30pm 12.5 8.7 9.9 84 1.4 NNW 20 28 11 15 - - 0.2
25/02:00pm 12.2 8.2 9.0 81 1.6 NW 20 28 11 15 - - 0.2
25/01:30pm 12.2 8.3 9.6 84 1.3 NW 20 26 11 14 - - 0.2
25/01:00pm 11.9 8.1 11.0 94 0.5 NW 22 37 12 20 - - 0.2
25/12:30pm 11.2 8.2 10.6 96 0.3 NNW 17 22 9 12 - - 0.0
25/12:00pm 11.0 9.0 10.1 94 0.5 NNW 11 15 6 8 - - 0.0
25/11:30am 10.8 8.7 9.9 94 0.5 NNW 11 15 6 8 - - 0.0
25/11:00am 10.3 8.1 9.4 94 0.5 NNW 11 13 6 7 - - 0.0
25/10:30am 10.2 9.0 9.6 96 0.3 NW 6 9 3 5 - - 0.0
25/10:00am 9.8 7.6 9.3 97 0.3 NW 11 15 6 8 - - 0.0
25/09:30am 8.7 7.0 8.3 97 0.2 NNW 7 11 4 6 - - 0.0
25/09:00am 6.5 4.5 6.1 97 0.2 NNW 6 6 3 3 - - 0.0
25/08:30am 6.7 4.7 6.4 98 0.1 NW 6 7 3 4 - - 0.0
25/08:00am 5.5 3.7 5.2 98 0.1 NNW 4 7 2 4 - - 0.0
25/07:30am 5.2 2.7 4.8 97 0.2 NNW 7 9 4 5 - - 0.0
25/07:00am 5.5 2.3 5.1 97 0.2 N 11 13 6 7 - - 0.0
25/06:30am 5.5 2.7 5.1 97 0.2 N 9 11 5 6 - - 0.0
25/06:00am 5.7 3.5 5.3 97 0.2 N 6 7 3 4 - - 0.0
25/05:30am 5.3 3.0 4.7 96 0.3 NW 6 7 3 4 - - 0.0
25/05:00am 5.5 3.0 4.9 96 0.3 NW 7 9 4 5 - - 0.0
25/04:30am 5.9 3.1 5.3 96 0.3 NNW 9 11 5 6 - - 0.0
25/04:00am 5.6 3.1 5.0 96 0.3 NNW 7 9 4 5 - - 0.0
25/03:30am 5.5 3.2 4.9 96 0.3 NNW 6 7 3 4 - - 0.0
25/03:00am 5.3 2.4 4.7 96 0.3 NNW 9 11 5 6 - - 0.0
25/02:30am 4.8 1.8 4.1 95 0.3 NNW 9 13 5 7 - - 0.0
25/02:00am 5.6 3.3 4.7 94 0.4 NW 6 11 3 6 - - 0.0
25/01:30am 6.0 3.6 5.1 94 0.4 N 7 9 4 5 - - 0.0
25/01:00am 6.0 3.5 5.0 93 0.4 NNW 7 9 4 5 - - 0.0
25/12:30am 6.0 4.1 4.8 92 0.5 NNE 4 7 2 4 - - 0.0
25/12:00am 6.2 3.9 5.0 92 0.5 NNE 6 7 3 4 - - 0.0
 
Date/Time
EST
Temp
°C
App
Temp
°C
Dew
Point
°C
Rel
Hum
%
Delta-T
°C
Wind Press
QNH
hPa
Press
MSL
hPa
Rain since
9am
mm
Dir  Spd
km/h
Gust
km/h
Spd
kts
Gust
kts
24/11:30pm 5.9 3.9 4.5 91 0.6 NE 4 6 2 3 - - 0.0
24/11:00pm 6.5 5.0 5.0 90 0.7 NNE 2 6 1 3 - - 0.0
24/10:30pm 6.2 4.2 4.5 89 0.7 N 4 9 2 5 - - 0.0
24/10:00pm 6.0 3.9 3.8 86 0.9 N 4 11 2 6 - - 0.0
24/09:30pm 6.6 3.7 4.6 87 0.9 NNW 9 15 5 8 - - 0.0
24/09:00pm 7.2 5.6 4.5 83 1.2 N 2 6 1 3 - - 0.0
24/08:30pm 7.7 4.7 4.1 78 1.6 WNW 9 13 5 7 - - 0.0
24/08:00pm 7.7 4.7 4.3 79 1.5 NW 9 13 5 7 - - 0.0
24/07:30pm 7.8 4.1 4.4 79 1.5 NW 13 26 7 14 - - 0.0
24/07:00pm 8.4 5.1 4.6 77 1.7 WNW 11 20 6 11 - - 0.0
24/06:30pm 8.4 5.5 4.4 76 1.8 WNW 9 13 5 7 - - 0.0

Other Formats:

Comma delimited format used in spreadsheet applications
http://www.bom.gov.au/fwo/IDT60801/IDT60801.94955.axf

JavaScript Object Notation format (JSON) in row-major order
http://www.bom.gov.au/fwo/IDT60801/IDT60801.94955.json